Time;durP1;ratioP1;P1;durP2;ratioP2;P2;SDS_P1;SDS_P2;PMS_P1;PMS_P2;Temp;Humidity;BMP_temperature;BMP_pressure;BME280_temperature;BME280_humidity;BME280_pressure;Samples;Min_cycle;Max_cycle;Signal;HPM_P1;HPM_P2
2022/11/01 00:00:09;;;;;;;;;;;;;;;13.55;77.33;98280.50;7391317;19;19922;-81
2022/11/01 00:02:39;;;;;;;;;;;;;;;13.50;77.57;98269.56;7394883;19;19918;-81
2022/11/01 00:05:06;;;;;;;;;;;;;;;13.36;77.64;98264.03;7393376;19;20375;-82
2022/11/01 00:07:37;;;;;;;;;;;;;;;13.39;77.83;98257.53;7390198;19;20270;-81
2022/11/01 00:10:07;;;;;;;;;;;;;;;13.40;78.03;98264.47;7392850;19;19951;-82
2022/11/01 00:12:38;;;;;;;;;;;;;;;13.38;77.62;98272.66;7394558;19;19926;-81
2022/11/01 00:15:05;;;;;;;;;;;;;;;13.34;77.92;98271.34;7394285;19;19922;-81
2022/11/01 00:17:35;;;;;;;;;;;;;;;13.35;77.93;98266.88;7398257;19;20681;-83
2022/11/01 00:20:02;;;;;;;;;;;;;;;13.33;78.19;98264.38;7405743;19;19915;-81
2022/11/01 00:22:28;;;;;;;;;;;;;;;13.29;77.96;98268.38;7395029;19;19922;-81
2022/11/01 00:24:55;;;;;;;;;;;;;;;13.33;78.11;98276.84;7395147;19;19947;-81
2022/11/01 00:27:22;;;;;;;;;;;;;;;13.27;78.02;98264.25;7394807;19;19923;-82
2022/11/01 00:29:50;;;;;;;;;;;;;;;13.15;78.31;98261.97;7398143;19;19922;-82
2022/11/01 00:32:16;;;;;;;;;;;;;;;13.20;78.62;98257.97;7398170;19;19914;-82
2022/11/01 00:34:43;;;;;;;;;;;;;;;13.16;78.58;98254.81;7398679;19;19922;-81
2022/11/01 00:37:09;;;;;;;;;;;;;;;13.14;78.74;98262.97;7397292;19;20257;-83
2022/11/01 00:39:36;;;;;;;;;;;;;;;13.23;78.39;98257.59;7387700;19;19915;-80
2022/11/01 00:42:03;;;;;;;;;;;;;;;13.16;78.50;98245.03;7388508;19;19942;-79
2022/11/01 00:44:29;;;;;;;;;;;;;;;13.07;78.97;98256.69;7392889;19;19910;-80
2022/11/01 00:46:56;;;;;;;;;;;;;;;13.27;78.77;98257.13;7392089;19;19918;-79
2022/11/01 00:49:22;;;;;;;;;;;;;;;13.21;79.01;98256.94;7392749;19;19939;-80
2022/11/01 00:51:49;;;;;;;;;;;;;;;13.30;79.06;98250.63;7396589;19;20035;-80
2022/11/01 00:54:15;;;;;;;;;;;;;;;13.29;78.41;98260.41;7396520;19;20242;-80
2022/11/01 00:56:42;;;;;;;;;;;;;;;13.27;78.08;98265.09;7393861;19;19943;-80
2022/11/01 00:59:08;;;;;;;;;;;;;;;13.22;78.38;98263.91;7391110;19;19915;-80
2022/11/01 01:01:35;;;;;;;;;;;;;;;13.27;78.22;98258.94;7393267;19;19910;-79
2022/11/01 01:04:02;;;;;;;;;;;;;;;13.26;78.32;98263.41;7395555;19;19907;-80
2022/11/01 01:06:28;;;;;;;;;;;;;;;13.24;78.17;98269.88;7391352;19;19922;-80
2022/11/01 01:08:59;;;;;;;;;;;;;;;13.28;78.03;98269.38;7391337;19;19943;-80
2022/11/01 01:11:26;;;;;;;;;;;;;;;13.30;77.77;98258.59;7394647;19;19923;-80
2022/11/01 01:13:52;;;;;;;;;;;;;;;13.16;77.99;98247.69;7393158;19;19915;-80
2022/11/01 01:16:19;;;;;;;;;;;;;;;13.17;78.21;98252.00;7393242;19;20372;-80
2022/11/01 01:18:45;;;;;;;;;;;;;;;13.24;77.92;98254.75;7389242;19;19918;-80
2022/11/01 01:21:12;;;;;;;;;;;;;;;13.17;77.39;98259.97;7394562;19;20328;-80
2022/11/01 01:23:39;;;;;;;;;;;;;;;13.12;77.32;98256.19;7392903;19;19926;-80
2022/11/01 01:26:06;;;;;;;;;;;;;;;13.02;77.81;98256.38;7389253;19;19923;-80
2022/11/01 01:28:33;;;;;;;;;;;;;;;13.04;78.15;98253.56;7389988;19;20293;-80
2022/11/01 01:30:59;;;;;;;;;;;;;;;13.02;78.40;98251.06;7391902;19;19927;-80
2022/11/01 01:33:26;;;;;;;;;;;;;;;13.05;78.41;98249.91;7393827;19;20410;-80
2022/11/01 01:35:52;;;;;;;;;;;;;;;13.15;78.16;98240.72;7408554;19;19926;-80
2022/11/01 01:38:19;;;;;;;;;;;;;;;13.08;78.30;98239.75;7405287;19;19974;-79
2022/11/01 01:40:45;;;;;;;;;;;;;;;13.18;78.13;98234.22;7389243;19;20234;-79
2022/11/01 01:43:12;;;;;;;;;;;;;;;13.22;78.30;98243.50;7391102;19;20037;-80
2022/11/01 01:45:39;;;;;;;;;;;;;;;13.20;78.15;98236.72;7393663;19;19914;-80
2022/11/01 01:48:14;;;;;;;;;;;;;;;13.15;78.10;98240.72;7391152;19;19946;-79
2022/11/01 01:50:48;;;;;;;;;;;;;;;13.05;78.20;98237.44;7393153;19;19918;-80
2022/11/01 01:53:19;;;;;;;;;;;;;;;13.05;78.05;98233.97;7423662;19;19919;-79
2022/11/01 01:55:47;;;;;;;;;;;;;;;13.00;78.36;98231.81;7410535;19;19910;-80
2022/11/01 01:58:15;;;;;;;;;;;;;;;13.02;78.61;98229.84;7389547;19;19911;-80
2022/11/01 02:00:42;;;;;;;;;;;;;;;13.02;78.51;98239.63;7389730;19;19930;-80
2022/11/01 02:03:08;;;;;;;;;;;;;;;13.07;78.31;98230.13;7393599;19;19915;-79
2022/11/01 02:05:36;;;;;;;;;;;;;;;13.07;78.45;98235.44;7390299;19;19923;-80
2022/11/01 02:08:04;;;;;;;;;;;;;;;13.07;79.14;98232.78;7395054;19;19943;-80
2022/11/01 02:10:31;;;;;;;;;;;;;;;13.15;79.53;98230.09;7398284;19;20358;-80
2022/11/01 02:12:57;;;;;;;;;;;;;;;13.23;79.51;98228.38;7395657;19;19943;-80
2022/11/01 02:15:27;;;;;;;;;;;;;;;13.27;79.22;98241.19;7403294;19;19943;-80
2022/11/01 02:17:57;;;;;;;;;;;;;;;13.24;79.07;98240.66;7405268;19;19929;-80
2022/11/01 02:20:38;;;;;;;;;;;;;;;13.26;78.84;98252.78;7401778;19;20452;-80
2022/11/01 02:23:08;;;;;;;;;;;;;;;13.36;78.52;98241.94;7399776;19;19919;-80
2022/11/01 02:25:41;;;;;;;;;;;;;;;13.41;78.33;98250.22;7404563;19;19947;-80
2022/11/01 02:28:10;;;;;;;;;;;;;;;13.42;78.35;98251.84;7400328;19;19915;-80
2022/11/01 02:30:40;;;;;;;;;;;;;;;13.45;78.42;98251.50;7397986;19;20357;-80
2022/11/01 02:33:16;;;;;;;;;;;;;;;13.41;78.32;98249.41;7401573;19;19928;-80
2022/11/01 02:36:15;;;;;;;;;;;;;;;13.48;78.53;98245.00;7402641;19;19922;-80
2022/11/01 02:38:46;;;;;;;;;;;;;;;13.56;78.27;98236.97;7393687;19;20354;-80
2022/11/01 02:41:16;;;;;;;;;;;;;;;13.55;78.41;98241.47;7397350;19;20002;-80
2022/11/01 02:43:59;;;;;;;;;;;;;;;13.61;78.09;98245.22;7397069;19;19939;-80
2022/11/01 02:49:11;;;;;;;;;;;;;;;13.69;77.76;98236.38;7396625;19;19914;-80
2022/11/01 02:51:38;;;;;;;;;;;;;;;13.77;77.78;98236.28;7398173;19;19922;-80
2022/11/01 02:54:09;;;;;;;;;;;;;;;13.82;77.18;98236.59;7397305;19;19923;-80
2022/11/01 02:56:36;;;;;;;;;;;;;;;13.73;77.34;98243.81;7409078;19;19926;-80
2022/11/01 02:59:02;;;;;;;;;;;;;;;13.76;77.09;98255.94;7408237;19;19914;-80
2022/11/01 03:01:29;;;;;;;;;;;;;;;13.76;77.30;98263.91;7410497;19;19914;-81
2022/11/01 03:03:56;;;;;;;;;;;;;;;13.85;77.32;98260.19;7401305;19;19946;-80
2022/11/01 03:06:22;;;;;;;;;;;;;;;13.87;77.46;98275.94;7400152;19;19918;-80
2022/11/01 03:08:54;;;;;;;;;;;;;;;13.81;77.81;98273.00;7396496;19;19944;-80
2022/11/01 03:11:21;;;;;;;;;;;;;;;13.80;78.15;98274.00;7394847;19;19922;-80
2022/11/01 03:13:57;;;;;;;;;;;;;;;13.90;78.12;98273.78;7393913;19;19948;-80
2022/11/01 03:16:30;;;;;;;;;;;;;;;13.81;77.88;98266.84;7397451;19;19923;-80
2022/11/01 03:18:56;;;;;;;;;;;;;;;13.78;78.22;98264.56;7393256;19;19947;-80
2022/11/01 03:21:24;;;;;;;;;;;;;;;13.73;79.02;98267.75;7400646;19;19922;-81
2022/11/01 03:23:52;;;;;;;;;;;;;;;13.86;78.42;98277.78;7421811;19;19922;-80
2022/11/01 03:26:22;;;;;;;;;;;;;;;13.86;78.47;98277.78;7397997;19;20026;-80
2022/11/01 03:28:49;;;;;;;;;;;;;;;13.83;78.58;98270.16;7393188;19;19949;-80
2022/11/01 03:31:24;;;;;;;;;;;;;;;13.90;78.34;98273.78;7397024;19;19920;-79
2022/11/01 03:33:52;;;;;;;;;;;;;;;13.84;78.49;98272.63;7398034;19;19918;-79
2022/11/01 03:36:18;;;;;;;;;;;;;;;14.02;77.79;98288.28;7393666;19;20296;-79
2022/11/01 03:38:50;;;;;;;;;;;;;;;14.04;77.69;98288.94;7393920;19;20326;-80
2022/11/01 03:41:17;;;;;;;;;;;;;;;14.09;77.03;98288.41;7395574;19;19943;-80
2022/11/01 03:43:43;;;;;;;;;;;;;;;14.18;76.93;98289.13;7393913;19;20345;-79
2022/11/01 03:46:10;;;;;;;;;;;;;;;14.13;76.96;98302.16;7393361;19;19914;-80
2022/11/01 03:48:37;;;;;;;;;;;;;;;14.17;76.92;98303.47;7393607;19;19918;-80
2022/11/01 03:51:04;;;;;;;;;;;;;;;14.16;76.61;98309.78;7394956;19;19923;-80
2022/11/01 03:53:31;;;;;;;;;;;;;;;14.14;76.72;98309.13;7395022;19;20263;-80
2022/11/01 03:55:58;;;;;;;;;;;;;;;14.24;76.19;98315.88;7394716;19;20351;-80
2022/11/01 03:58:40;;;;;;;;;;;;;;;14.16;76.34;98317.75;7392962;19;19930;-80
2022/11/01 04:01:07;;;;;;;;;;;;;;;14.16;76.78;98321.22;7393613;19;19929;-80
2022/11/01 04:03:34;;;;;;;;;;;;;;;14.11;77.00;98328.94;7397335;19;19915;-80
2022/11/01 04:06:01;;;;;;;;;;;;;;;14.05;77.31;98322.50;7403951;19;20341;-80
2022/11/01 04:08:28;;;;;;;;;;;;;;;14.07;77.61;98319.66;7398955;19;19931;-80
2022/11/01 04:10:54;;;;;;;;;;;;;;;13.99;77.42;98328.53;7400111;19;19943;-80
2022/11/01 04:13:21;;;;;;;;;;;;;;;13.98;77.56;98334.03;7403362;19;19946;-80
2022/11/01 04:21:19;;;;;;;;;;;;;;;14.06;77.94;98344.63;7399351;19;19922;-80
2022/11/01 04:23:46;;;;;;;;;;;;;;;14.11;77.31;98344.88;7397355;19;19910;-80
2022/11/01 04:26:13;;;;;;;;;;;;;;;14.14;77.52;98341.03;7395476;19;19915;-80
2022/11/01 04:28:40;;;;;;;;;;;;;;;14.09;77.41;98344.25;7393184;19;19931;-80
2022/11/01 04:31:07;;;;;;;;;;;;;;;14.13;77.57;98355.34;7394483;19;19951;-80
2022/11/01 04:33:33;;;;;;;;;;;;;;;14.15;77.64;98348.84;7397646;19;19923;-80
2022/11/01 04:36:04;;;;;;;;;;;;;;;14.12;77.65;98349.22;7395642;19;19927;-80
2022/11/01 04:38:30;;;;;;;;;;;;;;;14.12;77.55;98348.41;7397382;19;19926;-80
2022/11/01 04:40:57;;;;;;;;;;;;;;;14.19;77.53;98346.66;7394403;19;19915;-80
2022/11/01 04:43:23;;;;;;;;;;;;;;;14.19;77.64;98342.19;7389070;19;19946;-80
2022/11/01 04:45:54;;;;;;;;;;;;;;;14.32;77.08;98343.38;7395433;19;19966;-80
2022/11/01 04:48:20;;;;;;;;;;;;;;;14.36;76.50;98345.50;7396519;19;19925;-79
2022/11/01 04:50:47;;;;;;;;;;;;;;;14.52;75.11;98352.53;7393604;19;19918;-79
2022/11/01 04:53:13;;;;;;;;;;;;;;;14.63;74.13;98356.59;7389462;19;19923;-79
2022/11/01 04:55:40;;;;;;;;;;;;;;;14.79;73.73;98367.06;7394085;19;19934;-79
2022/11/01 04:58:08;;;;;;;;;;;;;;;14.92;73.15;98375.25;7393284;19;19915;-79
2022/11/01 05:00:35;;;;;;;;;;;;;;;15.03;72.83;98368.63;7394679;19;19922;-79
2022/11/01 05:03:02;;;;;;;;;;;;;;;15.13;72.60;98376.38;7393415;19;19915;-79
2022/11/01 05:05:30;;;;;;;;;;;;;;;15.18;72.67;98381.16;7394098;19;19947;-79
2022/11/01 05:08:07;;;;;;;;;;;;;;;15.22;72.46;98388.59;7399208;19;19943;-79
2022/11/01 05:10:34;;;;;;;;;;;;;;;15.23;72.44;98376.91;7414857;19;19914;-79
2022/11/01 05:13:00;;;;;;;;;;;;;;;15.31;71.82;98392.78;7390493;19;19915;-78
2022/11/01 05:15:27;;;;;;;;;;;;;;;15.32;71.47;98398.94;7390220;19;19935;-78
2022/11/01 05:17:54;;;;;;;;;;;;;;;15.43;71.46;98401.16;7390269;19;19943;-79
2022/11/01 05:20:21;;;;;;;;;;;;;;;15.43;71.40;98400.31;7394605;19;20258;-79
2022/11/01 05:22:47;;;;;;;;;;;;;;;15.39;71.79;98412.38;7414364;19;19954;-79
2022/11/01 05:25:14;;;;;;;;;;;;;;;15.46;71.65;98419.44;7403079;19;19914;-78
2022/11/01 05:27:41;;;;;;;;;;;;;;;15.52;71.42;98412.53;7391575;19;19930;-79
2022/11/01 05:30:08;;;;;;;;;;;;;;;15.54;71.48;98424.69;7388249;19;19919;-79
2022/11/01 05:32:34;;;;;;;;;;;;;;;15.69;71.52;98422.03;7391219;19;19923;-79
2022/11/01 05:35:01;;;;;;;;;;;;;;;15.73;71.14;98415.28;7389340;19;20227;-79
2022/11/01 05:37:28;;;;;;;;;;;;;;;15.69;71.46;98415.84;7390668;19;20021;-80
2022/11/01 05:39:54;;;;;;;;;;;;;;;15.65;72.28;98412.69;7389842;19;20362;-79
2022/11/01 05:42:21;;;;;;;;;;;;;;;15.58;72.19;98404.59;7389465;19;19914;-79
2022/11/01 05:44:47;;;;;;;;;;;;;;;15.52;72.47;98410.69;7389549;19;19935;-79
2022/11/01 05:47:14;;;;;;;;;;;;;;;15.46;73.21;98419.44;7394151;19;19919;-79
2022/11/01 05:49:43;;;;;;;;;;;;;;;15.42;73.68;98420.00;7386222;19;20553;-79
2022/11/01 05:52:09;;;;;;;;;;;;;;;15.44;73.68;98408.13;7391001;19;19918;-79
2022/11/01 05:54:36;;;;;;;;;;;;;;;15.36;73.93;98405.56;7391830;19;19923;-79
2022/11/01 05:57:03;;;;;;;;;;;;;;;15.42;72.83;98394.16;7393500;19;19915;-79
2022/11/01 05:59:30;;;;;;;;;;;;;;;15.53;72.67;98406.19;7393430;19;20572;-79
2022/11/01 06:01:57;;;;;;;;;;;;;;;15.66;71.70;98405.53;7397435;19;19959;-79
2022/11/01 06:04:23;;;;;;;;;;;;;;;15.74;71.59;98416.09;7399929;19;19923;-79
2022/11/01 06:06:50;;;;;;;;;;;;;;;15.77;71.48;98429.06;7394653;19;19948;-79
2022/11/01 06:09:16;;;;;;;;;;;;;;;15.77;72.14;98429.91;7393757;19;19923;-79
2022/11/01 06:11:43;;;;;;;;;;;;;;;15.93;70.98;98428.84;7398886;19;19946;-78
2022/11/01 06:14:09;;;;;;;;;;;;;;;15.99;71.26;98437.94;7393514;19;19944;-79
2022/11/01 06:16:36;;;;;;;;;;;;;;;15.91;72.13;98435.41;7392235;19;19919;-79
2022/11/01 06:19:03;;;;;;;;;;;;;;;15.84;72.59;98437.97;7394207;19;19943;-79
2022/11/01 06:21:29;;;;;;;;;;;;;;;15.77;72.57;98471.75;7396764;19;19951;-79
2022/11/01 06:23:55;;;;;;;;;;;;;;;15.75;72.30;98471.13;7394754;19;20601;-79
2022/11/01 06:26:22;;;;;;;;;;;;;;;15.60;73.42;98457.75;7393015;19;19922;-80
2022/11/01 06:28:49;;;;;;;;;;;;;;;15.53;73.12;98457.69;7393160;19;19926;-79
2022/11/01 06:31:15;;;;;;;;;;;;;;;15.48;73.69;98459.25;7390863;19;19947;-79
2022/11/01 06:33:42;;;;;;;;;;;;;;;15.35;74.13;98455.41;7391576;19;19956;-79
2022/11/01 06:36:08;;;;;;;;;;;;;;;15.29;74.51;98456.13;7395578;19;19947;-79
2022/11/01 06:38:35;;;;;;;;;;;;;;;15.22;74.91;98457.88;7388618;19;20262;-80
2022/11/01 06:41:01;;;;;;;;;;;;;;;15.18;75.15;98461.09;7390724;19;19918;-80
2022/11/01 06:43:28;;;;;;;;;;;;;;;15.18;75.12;98456.59;7389819;19;19939;-79
2022/11/01 06:45:57;;;;;;;;;;;;;;;15.16;75.47;98466.59;7391746;19;19918;-79
2022/11/01 06:48:24;;;;;;;;;;;;;;;15.16;75.64;98474.59;7387972;19;19927;-79
2022/11/01 06:50:52;;;;;;;;;;;;;;;15.29;75.40;98477.44;7389522;19;20574;-79
2022/11/01 06:53:19;;;;;;;;;;;;;;;15.29;75.44;98484.63;7394731;19;19943;-79
2022/11/01 06:55:45;;;;;;;;;;;;;;;15.32;75.31;98513.56;7420148;19;19926;-79
2022/11/01 06:58:12;;;;;;;;;;;;;;;15.31;74.67;98512.75;7398968;19;19910;-79
2022/11/01 07:00:39;;;;;;;;;;;;;;;15.49;74.03;98509.72;7396842;19;19914;-78
2022/11/01 07:03:06;;;;;;;;;;;;;;;15.64;73.72;98503.53;7396998;19;20017;-79
2022/11/01 07:05:33;;;;;;;;;;;;;;;15.69;73.41;98523.38;7395414;19;19935;-79
2022/11/01 07:08:03;;;;;;;;;;;;;;;15.72;73.64;98533.66;7397272;19;19939;-79
2022/11/01 07:10:30;;;;;;;;;;;;;;;15.73;73.85;98521.16;7396457;19;20250;-79
2022/11/01 07:12:58;;;;;;;;;;;;;;;15.82;73.70;98516.53;7395253;19;20263;-79
2022/11/01 07:15:25;;;;;;;;;;;;;;;15.73;74.59;98513.97;7399807;19;19939;-79
2022/11/01 07:17:55;;;;;;;;;;;;;;;15.70;74.92;98509.00;7398970;19;19944;-79
2022/11/01 07:20:22;;;;;;;;;;;;;;;15.72;75.45;98515.00;7396662;19;20366;-79
2022/11/01 07:22:56;;;;;;;;;;;;;;;15.62;75.81;98516.25;7409425;19;19918;-79
2022/11/01 07:25:23;;;;;;;;;;;;;;;15.59;76.21;98525.47;7421752;19;19922;-79
2022/11/01 07:27:50;;;;;;;;;;;;;;;15.56;76.35;98529.31;7411755;19;19914;-79
2022/11/01 07:30:16;;;;;;;;;;;;;;;15.59;76.74;98523.63;7397832;19;19942;-79
2022/11/01 07:32:43;;;;;;;;;;;;;;;15.59;76.92;98528.13;7397878;19;19923;-79
2022/11/01 07:35:09;;;;;;;;;;;;;;;15.59;77.05;98515.63;7396781;19;19919;-81
2022/11/01 07:37:36;;;;;;;;;;;;;;;15.63;77.26;98521.41;7395022;19;19938;-80
2022/11/01 07:40:03;;;;;;;;;;;;;;;15.69;77.37;98522.53;7394417;19;19915;-80
2022/11/01 07:42:29;;;;;;;;;;;;;;;15.70;77.58;98535.69;7396125;19;19915;-80
2022/11/01 07:44:56;;;;;;;;;;;;;;;15.75;77.50;98535.97;7395279;19;19922;-79
2022/11/01 07:47:25;;;;;;;;;;;;;;;15.86;77.53;98545.34;7393890;19;19922;-78
2022/11/01 07:49:52;;;;;;;;;;;;;;;15.88;77.47;98537.16;7390364;19;19918;-79
2022/11/01 07:52:21;;;;;;;;;;;;;;;15.87;77.71;98543.50;7397558;19;20260;-80
2022/11/01 07:54:48;;;;;;;;;;;;;;;15.94;77.59;98552.41;7395262;19;19934;-79
2022/11/01 07:57:18;;;;;;;;;;;;;;;16.03;77.56;98551.28;7394882;19;19925;-79
2022/11/01 07:59:44;;;;;;;;;;;;;;;16.19;76.79;98552.91;7391189;19;19919;-78
2022/11/01 08:02:11;;;;;;;;;;;;;;;16.28;75.90;98557.16;7394996;19;19922;-77
2022/11/01 08:04:38;;;;;;;;;;;;;;;16.41;74.89;98548.47;7392945;19;19918;-79
2022/11/01 08:07:05;;;;;;;;;;;;;;;16.44;74.36;98548.06;7392483;19;19922;-79
2022/11/01 08:09:33;;;;;;;;;;;;;;;16.50;74.22;98557.16;7386253;19;19923;-80
2022/11/01 08:12:00;;;;;;;;;;;;;;;16.56;73.49;98562.59;7391615;19;19915;-78
2022/11/01 08:14:29;;;;;;;;;;;;;;;16.56;73.65;98569.75;7390708;19;19952;-79
2022/11/01 08:17:00;;;;;;;;;;;;;;;16.57;73.92;98579.44;7393322;19;19922;-79
2022/11/01 08:19:34;;;;;;;;;;;;;;;16.65;73.54;98587.34;7388830;19;20006;-77
2022/11/01 08:22:02;;;;;;;;;;;;;;;16.68;73.31;98579.75;7392077;19;19914;-78
2022/11/01 08:24:34;;;;;;;;;;;;;;;16.80;73.27;98585.47;7394335;19;19933;-79
2022/11/01 08:27:02;;;;;;;;;;;;;;;16.87;73.61;98572.16;7392550;19;19939;-79
2022/11/01 08:29:28;;;;;;;;;;;;;;;16.95;73.46;98577.38;7387095;19;20024;-78
2022/11/01 08:31:56;;;;;;;;;;;;;;;16.95;72.88;98592.59;7391562;19;19926;-79
2022/11/01 08:34:22;;;;;;;;;;;;;;;16.95;73.69;98588.06;7394327;19;19923;-79
2022/11/01 08:36:49;;;;;;;;;;;;;;;16.91;73.34;98589.47;7394009;19;19947;-79
2022/11/01 08:39:15;;;;;;;;;;;;;;;17.09;73.61;98595.19;7383050;19;19930;-79
2022/11/01 08:41:42;;;;;;;;;;;;;;;17.14;73.41;98591.09;7393804;19;19948;-78
2022/11/01 08:44:08;;;;;;;;;;;;;;;17.21;73.27;98592.81;7390521;19;20355;-81
2022/11/01 08:46:35;;;;;;;;;;;;;;;17.31;74.02;98590.66;7389761;19;19918;-79
2022/11/01 08:49:02;;;;;;;;;;;;;;;17.20;72.71;98593.84;7391587;19;19939;-79
2022/11/01 08:51:29;;;;;;;;;;;;;;;17.41;71.98;98598.34;7394046;19;20279;-78
2022/11/01 08:53:55;;;;;;;;;;;;;;;17.51;72.20;98588.13;7392359;19;19934;-80
2022/11/01 08:56:23;;;;;;;;;;;;;;;17.58;72.16;98600.72;7391362;19;19935;-79
2022/11/01 08:58:50;;;;;;;;;;;;;;;17.61;72.40;98608.34;7392067;19;19939;-77
2022/11/01 09:01:17;;;;;;;;;;;;;;;17.64;72.37;98600.78;7391443;19;20281;-79
2022/11/01 09:03:44;;;;;;;;;;;;;;;17.69;71.35;98617.06;7391039;19;19918;-79
2022/11/01 09:06:10;;;;;;;;;;;;;;;17.72;70.09;98605.13;7392947;19;19914;-79
2022/11/01 09:08:37;;;;;;;;;;;;;;;17.73;70.50;98604.94;7386132;19;19951;-81
2022/11/01 09:11:05;;;;;;;;;;;;;;;17.72;71.68;98602.44;7388511;19;20338;-78
2022/11/01 09:13:32;;;;;;;;;;;;;;;17.77;71.79;98597.34;7390205;19;19943;-78
2022/11/01 09:15:59;;;;;;;;;;;;;;;17.72;72.12;98597.09;7393994;19;20374;-79
2022/11/01 09:18:28;;;;;;;;;;;;;;;17.71;71.86;98608.84;7390837;19;19918;-80
2022/11/01 09:20:55;;;;;;;;;;;;;;;17.80;72.46;98613.06;7393498;19;19926;-79
2022/11/01 09:23:21;;;;;;;;;;;;;;;17.74;71.91;98611.13;7391909;19;19911;-79
2022/11/01 09:25:48;;;;;;;;;;;;;;;17.78;71.09;98620.41;7391362;19;19919;-80
2022/11/01 09:28:14;;;;;;;;;;;;;;;17.74;71.08;98624.50;7386950;19;20280;-79
2022/11/01 09:30:41;;;;;;;;;;;;;;;17.73;71.02;98614.81;7392136;19;19915;-77
2022/11/01 09:33:22;;;;;;;;;;;;;;;17.76;70.57;98620.59;7390640;19;19986;-80
2022/11/01 09:35:49;;;;;;;;;;;;;;;17.85;70.21;98615.13;7388253;19;19910;-80
2022/11/01 09:38:22;;;;;;;;;;;;;;;18.06;70.16;98614.22;7389493;19;19914;-80
2022/11/01 09:40:51;;;;;;;;;;;;;;;18.11;70.49;98617.13;7391173;19;19926;-78
2022/11/01 09:43:19;;;;;;;;;;;;;;;18.15;71.69;98613.03;7387241;19;19950;-79
2022/11/01 09:45:46;;;;;;;;;;;;;;;18.21;70.91;98617.59;7389647;19;19922;-79
2022/11/01 09:48:13;;;;;;;;;;;;;;;18.26;69.87;98607.13;7391737;19;19918;-80
2022/11/01 09:50:40;;;;;;;;;;;;;;;18.49;70.36;98614.00;7387003;19;19952;-79
2022/11/01 09:53:07;;;;;;;;;;;;;;;18.60;70.71;98622.28;7389410;19;19930;-79
2022/11/01 09:55:34;;;;;;;;;;;;;;;18.73;69.82;98621.50;7391645;19;19903;-80
2022/11/01 09:58:03;;;;;;;;;;;;;;;18.91;67.97;98630.88;7391358;19;19927;-79
2022/11/01 10:00:33;;;;;;;;;;;;;;;19.08;67.39;98637.47;7389709;19;19978;-78
2022/11/01 10:03:09;;;;;;;;;;;;;;;19.37;66.96;98630.09;7389805;19;19923;-78
2022/11/01 10:06:00;;;;;;;;;;;;;;;19.53;65.87;98624.28;7392170;19;19929;-82
2022/11/01 10:08:27;;;;;;;;;;;;;;;19.49;64.91;98626.56;7389832;19;20564;-79
2022/11/01 10:10:59;;;;;;;;;;;;;;;19.57;65.84;98627.41;7392447;19;19923;-78
2022/11/01 10:13:44;;;;;;;;;;;;;;;19.50;64.94;98625.53;7393801;19;19919;-78
2022/11/01 10:16:18;;;;;;;;;;;;;;;19.57;65.54;98630.91;7390962;19;19998;-79
2022/11/01 10:18:59;;;;;;;;;;;;;;;19.63;66.30;98635.44;7392700;19;19919;-78
2022/11/01 10:21:26;;;;;;;;;;;;;;;19.72;64.84;98634.25;7393370;19;19943;-80
2022/11/01 10:23:55;;;;;;;;;;;;;;;19.55;64.10;98632.97;7388723;19;19918;-79
2022/11/01 10:26:29;;;;;;;;;;;;;;;19.58;64.02;98626.38;7389324;19;19932;-79
2022/11/01 10:29:07;;;;;;;;;;;;;;;19.56;64.49;98628.44;7389739;19;19919;-80
2022/11/01 10:31:36;;;;;;;;;;;;;;;19.43;63.99;98627.41;7395292;19;19926;-79
2022/11/01 10:34:03;;;;;;;;;;;;;;;19.39;64.46;98628.84;7393120;19;19943;-79
2022/11/01 10:36:37;;;;;;;;;;;;;;;19.36;62.47;98623.06;7398027;19;19911;-79
2022/11/01 10:39:14;;;;;;;;;;;;;;;19.28;61.94;98626.78;7393299;19;19910;-79
2022/11/01 10:42:06;;;;;;;;;;;;;;;19.37;61.78;98630.09;7397590;19;19935;-80
2022/11/01 10:44:34;;;;;;;;;;;;;;;19.31;62.46;98629.06;7396403;19;19950;-79
2022/11/01 10:47:03;;;;;;;;;;;;;;;19.36;61.98;98626.59;7399296;19;19922;-79
2022/11/01 10:49:31;;;;;;;;;;;;;;;19.50;61.44;98624.72;7395743;19;19931;-80
2022/11/01 10:52:24;;;;;;;;;;;;;;;19.49;61.34;98621.22;7399505;19;19922;-80
2022/11/01 10:54:51;;;;;;;;;;;;;;;19.63;62.84;98626.56;7397994;19;20334;-78
2022/11/01 10:57:30;;;;;;;;;;;;;;;19.51;63.79;98631.75;7398217;19;19922;-80
2022/11/01 10:59:58;;;;;;;;;;;;;;;19.46;61.97;98626.19;7395402;19;20346;-79
2022/11/01 11:02:26;;;;;;;;;;;;;;;19.45;61.78;98624.50;7398884;19;19934;-85
2022/11/01 11:04:53;;;;;;;;;;;;;;;19.51;62.50;98634.44;7395463;19;19915;-80
2022/11/01 11:07:20;;;;;;;;;;;;;;;19.59;64.13;98631.53;7398576;19;19919;-79
2022/11/01 11:09:49;;;;;;;;;;;;;;;19.47;62.20;98631.31;7397524;19;19919;-78
2022/11/01 11:12:19;;;;;;;;;;;;;;;19.52;63.21;98633.38;7398159;19;19928;-80
2022/11/01 11:14:46;;;;;;;;;;;;;;;19.58;62.80;98632.56;7397016;19;19911;-79
2022/11/01 11:17:33;;;;;;;;;;;;;;;19.51;63.71;98629.06;7396568;19;19956;-79
2022/11/01 11:20:00;;;;;;;;;;;;;;;19.49;63.73;98629.25;7396046;19;19947;-79
2022/11/01 11:22:30;;;;;;;;;;;;;;;19.44;64.44;98630.91;7398458;19;19914;-79
2022/11/01 11:24:57;;;;;;;;;;;;;;;19.35;61.79;98632.97;7396161;19;19931;-78
2022/11/01 11:27:25;;;;;;;;;;;;;;;19.31;61.88;98631.72;7399522;19;19906;-80
2022/11/01 11:29:52;;;;;;;;;;;;;;;19.41;63.57;98632.16;7399441;19;19915;-79
2022/11/01 11:32:19;;;;;;;;;;;;;;;19.48;62.65;98633.00;7397590;19;19918;-79
2022/11/01 11:35:07;;;;;;;;;;;;;;;19.49;62.54;98633.81;7400445;19;19923;-79
2022/11/01 11:37:34;;;;;;;;;;;;;;;19.60;61.12;98629.69;7396371;19;19919;-79
2022/11/01 11:40:20;;;;;;;;;;;;;;;19.68;61.81;98627.63;7391586;19;20343;-79
2022/11/01 11:42:47;;;;;;;;;;;;;;;19.68;61.31;98624.94;7400320;19;19935;-80
2022/11/01 11:45:14;;;;;;;;;;;;;;;19.57;60.20;98630.09;7398611;19;20334;-80
2022/11/01 11:47:40;;;;;;;;;;;;;;;19.67;62.41;98626.00;7399139;19;19910;-80
2022/11/01 11:50:19;;;;;;;;;;;;;;;19.40;60.52;98627.81;7392618;19;19922;-80
2022/11/01 11:52:49;;;;;;;;;;;;;;;19.37;59.81;98625.53;7397982;19;19940;-79
2022/11/01 11:55:36;;;;;;;;;;;;;;;19.43;60.38;98627.41;7396647;19;20263;-79
2022/11/01 11:58:04;;;;;;;;;;;;;;;19.40;62.22;98630.47;7395502;19;20326;-80
2022/11/01 12:00:35;;;;;;;;;;;;;;;19.24;60.34;98621.00;7395714;19;19986;-78
2022/11/01 12:03:04;;;;;;;;;;;;;;;19.14;62.42;98630.47;7394861;19;19923;-79
2022/11/01 12:05:31;;;;;;;;;;;;;;;19.06;61.37;98629.66;7395250;19;19915;-79
2022/11/01 12:07:58;;;;;;;;;;;;;;;18.94;62.03;98628.59;7400534;19;19987;-80
2022/11/01 12:10:35;;;;;;;;;;;;;;;18.82;61.62;98632.88;7395652;19;19935;-78
2022/11/01 12:13:03;;;;;;;;;;;;;;;18.55;61.38;98632.78;7393166;19;19968;-79
2022/11/01 12:15:34;;;;;;;;;;;;;;;18.07;63.48;98656.88;7392432;19;19929;-79
2022/11/01 12:18:13;;;;;;;;;;;;;;;17.92;64.27;98643.59;7393619;19;19923;-80
2022/11/01 12:20:42;;;;;;;;;;;;;;;17.85;64.57;98647.25;7387567;19;19935;-80
2022/11/01 12:23:16;;;;;;;;;;;;;;;18.05;64.29;98642.84;7392999;19;19928;-79
2022/11/01 12:25:43;;;;;;;;;;;;;;;17.94;64.61;98641.53;7397566;19;20381;-78
2022/11/01 12:28:19;;;;;;;;;;;;;;;17.80;64.22;98650.53;7394222;19;19926;-80
2022/11/01 12:30:45;;;;;;;;;;;;;;;17.67;64.35;98650.41;7395492;19;19925;-78
2022/11/01 12:33:20;;;;;;;;;;;;;;;17.90;64.63;98644.81;7393050;19;19942;-79
2022/11/01 12:35:47;;;;;;;;;;;;;;;17.82;64.43;98648.47;7394414;19;19918;-79
2022/11/01 12:38:16;;;;;;;;;;;;;;;17.79;63.89;98646.19;7392294;19;19919;-79
2022/11/01 12:40:44;;;;;;;;;;;;;;;17.71;64.43;98646.28;7391762;19;19914;-81
2022/11/01 12:43:13;;;;;;;;;;;;;;;17.62;64.56;98652.81;7392350;19;19934;-81
2022/11/01 12:45:50;;;;;;;;;;;;;;;17.45;64.22;98650.41;7394880;19;19915;-83
2022/11/01 12:48:20;;;;;;;;;;;;;;;17.40;64.32;98644.81;7387276;19;20374;-80
2022/11/01 12:51:07;;;;;;;;;;;;;;;17.26;64.61;98654.56;7386112;19;19996;-80
2022/11/01 12:53:34;;;;;;;;;;;;;;;17.43;64.63;98651.63;7392097;19;19926;-78
2022/11/01 12:56:01;;;;;;;;;;;;;;;17.50;64.49;98649.84;7387794;19;19914;-80
2022/11/01 12:58:27;;;;;;;;;;;;;;;17.61;65.04;98656.50;7391311;19;19918;-80
2022/11/01 13:01:19;;;;;;;;;;;;;;;17.62;64.38;98647.47;7391026;19;19929;-83
2022/11/01 13:03:52;;;;;;;;;;;;;;;17.69;63.94;98661.72;7394438;19;20007;-81